createdAt,value
2022-10-27T00:00:18.055Z,77.05
2022-10-27T00:02:46.795Z,76.87
2022-10-27T00:05:15.780Z,77.55
2022-10-27T00:07:44.343Z,77.20
2022-10-27T00:10:12.926Z,76.70
2022-10-27T00:12:41.534Z,77.01
2022-10-27T00:15:12.256Z,76.86
2022-10-27T00:17:41.315Z,77.12
2022-10-27T00:20:11.310Z,76.78
2022-10-27T00:22:39.910Z,76.93
2022-10-27T00:25:09.427Z,76.70
2022-10-27T00:27:38.132Z,77.25
2022-10-27T00:30:08.950Z,77.09
2022-10-27T00:32:37.615Z,77.29
2022-10-27T00:35:12.479Z,77.21
2022-10-27T00:37:41.093Z,77.26
2022-10-27T00:40:12.503Z,77.16
2022-10-27T00:42:40.999Z,77.18
2022-10-27T00:45:11.163Z,77.31
2022-10-27T00:47:41.042Z,77.34
2022-10-27T00:50:14.876Z,77.25
2022-10-27T00:52:46.156Z,77.22
2022-10-27T00:55:18.795Z,77.25
2022-10-27T00:57:49.837Z,77.29
2022-10-27T01:00:19.218Z,77.62
2022-10-27T01:02:48.771Z,77.43
2022-10-27T01:05:20.841Z,77.43
2022-10-27T01:07:51.761Z,77.70
2022-10-27T01:10:20.686Z,77.36
2022-10-27T01:12:50.195Z,77.23
2022-10-27T01:15:21.066Z,76.83
2022-10-27T01:17:58.556Z,76.83
2022-10-27T01:21:19.764Z,76.84
2022-10-27T01:24:12.431Z,76.61
2022-10-27T01:26:50.605Z,77.07
2022-10-27T01:30:00.321Z,77.30
2022-10-27T01:32:36.025Z,77.02
2022-10-27T01:35:12.446Z,77.36
2022-10-27T01:37:47.305Z,77.07
2022-10-27T01:40:22.961Z,77.36
2022-10-27T01:42:55.113Z,77.55
2022-10-27T01:45:27.099Z,77.55
2022-10-27T01:47:57.336Z,77.38
2022-10-27T01:50:36.053Z,77.50
2022-10-27T01:53:18.012Z,77.03
2022-10-27T01:56:00.978Z,76.95
2022-10-27T01:58:48.083Z,77.21
2022-10-27T02:01:28.571Z,77.27
2022-10-27T02:04:05.383Z,76.72
2022-10-27T02:06:41.527Z,76.89
2022-10-27T02:09:13.930Z,77.18
2022-10-27T02:11:46.230Z,76.91
2022-10-27T02:14:15.862Z,77.61
2022-10-27T02:16:48.362Z,77.90
2022-10-27T02:19:21.667Z,77.63
2022-10-27T02:21:54.433Z,77.58
2022-10-27T02:24:24.264Z,76.98
2022-10-27T02:26:57.504Z,77.32
2022-10-27T02:29:31.292Z,76.80
2022-10-27T02:34:58.778Z,77.45
2022-10-27T02:37:32.548Z,77.17
2022-10-27T02:40:01.464Z,77.18
2022-10-27T02:42:30.090Z,76.66
2022-10-27T02:44:58.992Z,76.44
2022-10-27T02:47:27.610Z,76.73
2022-10-27T02:49:56.459Z,76.80
2022-10-27T02:52:25.162Z,76.54
2022-10-27T02:54:53.774Z,77.04
2022-10-27T02:57:22.406Z,76.80
2022-10-27T02:59:53.652Z,76.26
2022-10-27T03:02:23.418Z,76.24
2022-10-27T03:04:52.489Z,76.45
2022-10-27T03:07:21.349Z,76.17
2022-10-27T03:09:50.078Z,76.17
2022-10-27T03:12:18.687Z,76.29
2022-10-27T03:14:47.341Z,76.97
2022-10-27T03:17:16.027Z,76.84
2022-10-27T03:19:44.635Z,76.73
2022-10-27T03:22:13.290Z,76.47
2022-10-27T03:24:42.043Z,76.69
2022-10-27T03:27:10.691Z,76.29
2022-10-27T03:29:49.951Z,76.28
2022-10-27T03:32:26.877Z,76.72
2022-10-27T03:34:55.635Z,76.46
2022-10-27T03:37:24.408Z,76.32
2022-10-27T03:39:53.102Z,76.17
2022-10-27T03:42:21.651Z,76.31
2022-10-27T03:44:50.370Z,76.57
2022-10-27T03:47:19.124Z,76.53
2022-10-27T03:49:47.793Z,76.70
2022-10-27T03:52:16.468Z,76.65
2022-10-27T03:54:45.105Z,76.42
2022-10-27T03:57:13.727Z,76.84
2022-10-27T03:59:42.319Z,76.78
2022-10-27T04:02:11.374Z,76.86
2022-10-27T04:04:40.281Z,77.07
2022-10-27T04:07:09.088Z,77.16
2022-10-27T04:09:37.874Z,76.98
2022-10-27T04:12:07.424Z,77.37
2022-10-27T04:14:42.094Z,77.50
2022-10-27T04:17:10.671Z,76.95
2022-10-27T04:19:39.264Z,77.21
2022-10-27T04:22:07.935Z,77.57
2022-10-27T04:24:40.099Z,77.39
2022-10-27T04:27:09.546Z,77.84
2022-10-27T04:29:38.315Z,77.88
2022-10-27T04:32:07.094Z,78.27
2022-10-27T04:34:35.806Z,78.51
2022-10-27T04:37:04.503Z,78.04
2022-10-27T04:39:33.219Z,77.35
2022-10-27T04:42:01.865Z,77.63
2022-10-27T04:44:30.511Z,77.93
2022-10-27T04:46:59.097Z,78.04
2022-10-27T04:49:27.794Z,78.25
2022-10-27T04:51:56.705Z,78.61
2022-10-27T04:54:25.514Z,78.11
2022-10-27T04:56:54.201Z,77.78
2022-10-27T04:59:22.877Z,78.28
2022-10-27T05:01:51.777Z,78.68
2022-10-27T05:04:20.707Z,79.40
2022-10-27T05:06:49.634Z,78.33
2022-10-27T05:09:18.353Z,77.81
2022-10-27T05:11:47.052Z,78.00
2022-10-27T05:14:15.703Z,78.24
2022-10-27T05:16:45.086Z,78.15
2022-10-27T05:19:14.050Z,77.60
2022-10-27T05:21:42.745Z,77.87
2022-10-27T05:24:11.965Z,78.48
2022-10-27T05:26:40.700Z,78.65
2022-10-27T05:29:09.867Z,78.13
2022-10-27T05:31:38.569Z,78.14
2022-10-27T05:34:07.683Z,78.42
2022-10-27T05:36:40.234Z,78.85
2022-10-27T05:39:11.870Z,78.62
2022-10-27T05:41:40.878Z,78.70
2022-10-27T05:44:09.999Z,78.89
2022-10-27T05:46:38.788Z,78.53
2022-10-27T05:49:07.470Z,78.59
2022-10-27T05:51:36.179Z,78.62
2022-10-27T05:54:05.073Z,78.03
2022-10-27T05:56:33.746Z,78.21
2022-10-27T06:01:37.551Z,78.19
2022-10-27T06:04:06.732Z,78.01
2022-10-27T06:06:35.851Z,77.95
2022-10-27T06:09:04.614Z,77.57
2022-10-27T06:11:33.333Z,77.74
2022-10-27T06:14:02.078Z,77.73
2022-10-27T06:16:31.126Z,78.59
2022-10-27T06:19:00.032Z,78.21
2022-10-27T06:21:28.712Z,77.71
2022-10-27T06:23:58.033Z,77.40
2022-10-27T06:26:27.118Z,77.65
2022-10-27T06:28:55.849Z,77.91
2022-10-27T06:31:24.463Z,77.96
2022-10-27T06:33:53.223Z,76.87
2022-10-27T06:36:22.137Z,76.09
2022-10-27T06:38:50.781Z,75.92
2022-10-27T06:41:19.438Z,74.79
2022-10-27T06:43:49.340Z,73.59
2022-10-27T06:46:18.080Z,72.85
2022-10-27T06:48:46.707Z,73.53
2022-10-27T06:51:15.370Z,73.61
2022-10-27T06:53:44.100Z,73.87
2022-10-27T06:56:12.837Z,73.72
2022-10-27T06:58:41.563Z,73.46
2022-10-27T07:01:10.468Z,73.76
2022-10-27T07:03:39.882Z,73.35
2022-10-27T07:06:09.143Z,72.81
2022-10-27T07:08:38.031Z,72.23
2022-10-27T07:11:07.415Z,72.37
2022-10-27T07:13:36.255Z,72.86
2022-10-27T07:16:08.993Z,72.46
2022-10-27T07:18:38.466Z,73.09
2022-10-27T07:21:07.376Z,73.22
2022-10-27T07:23:36.500Z,73.23
2022-10-27T07:26:05.753Z,72.93
2022-10-27T07:28:34.906Z,72.67
2022-10-27T07:31:04.195Z,72.72
2022-10-27T07:33:33.528Z,72.72
2022-10-27T07:36:02.248Z,72.43
2022-10-27T07:38:30.871Z,72.88
2022-10-27T07:40:59.899Z,73.17
2022-10-27T07:43:28.757Z,72.74
2022-10-27T07:45:58.136Z,73.17
2022-10-27T07:48:27.109Z,73.83
2022-10-27T07:50:55.975Z,73.75
2022-10-27T07:53:24.890Z,72.84
2022-10-27T07:55:56.456Z,72.75
2022-10-27T07:58:25.313Z,73.03
2022-10-27T08:00:54.827Z,73.34
2022-10-27T08:03:25.831Z,72.82
2022-10-27T08:05:54.552Z,72.82
2022-10-27T08:08:24.102Z,72.74
2022-10-27T08:19:06.741Z,70.88
2022-10-27T08:21:36.442Z,70.22
2022-10-27T08:24:07.738Z,69.67
2022-10-27T08:26:36.757Z,69.43
2022-10-27T08:29:06.271Z,68.89
2022-10-27T08:31:38.973Z,68.62
2022-10-27T08:34:07.910Z,68.17
2022-10-27T08:36:39.579Z,67.92
2022-10-27T08:39:11.462Z,68.06
2022-10-27T08:41:46.611Z,67.99
2022-10-27T08:44:24.569Z,67.73
2022-10-27T08:46:55.721Z,67.31
2022-10-27T08:49:31.739Z,67.35
2022-10-27T08:52:06.650Z,67.41
2022-10-27T08:54:43.254Z,66.74
2022-10-27T08:57:21.900Z,66.30
2022-10-27T08:59:57.367Z,66.02
2022-10-27T09:02:50.797Z,66.20
2022-10-27T09:05:34.869Z,66.40
2022-10-27T09:08:32.887Z,66.65
2022-10-27T09:11:25.667Z,66.72
2022-10-27T09:14:49.235Z,66.08
2022-10-27T09:17:25.413Z,65.89
2022-10-27T09:20:36.547Z,65.67
2022-10-27T09:23:11.907Z,65.32
2022-10-27T09:25:43.712Z,65.33
2022-10-27T09:28:33.605Z,64.92
2022-10-27T09:31:03.863Z,64.84
2022-10-27T09:33:36.386Z,64.99
2022-10-27T09:36:14.486Z,65.03
2022-10-27T09:38:43.429Z,65.15
2022-10-27T09:41:12.420Z,64.83
2022-10-27T09:44:30.156Z,65.13
2022-10-27T09:46:58.832Z,64.86
2022-10-27T09:49:34.738Z,64.58
2022-10-27T09:52:09.411Z,64.58
2022-10-27T09:54:42.283Z,64.62
2022-10-27T09:57:33.761Z,64.83
2022-10-27T10:00:09.427Z,65.14
2022-10-27T10:02:47.022Z,65.22
2022-10-27T10:05:25.087Z,64.93
2022-10-27T10:08:10.950Z,64.59
2022-10-27T10:10:40.425Z,64.88
2022-10-27T10:13:15.093Z,65.15
2022-10-27T10:15:45.934Z,64.96
2022-10-27T10:18:28.927Z,64.90
2022-10-27T10:20:59.681Z,65.02
2022-10-27T10:23:30.548Z,64.88
2022-10-27T10:26:00.774Z,64.75
2022-10-27T10:28:35.113Z,64.91
2022-10-27T10:31:06.528Z,65.05
2022-10-27T10:33:38.475Z,65.37
2022-10-27T10:36:25.611Z,65.21
2022-10-27T10:38:56.716Z,65.30
2022-10-27T10:41:26.257Z,65.05
2022-10-27T10:44:17.342Z,64.95
2022-10-27T10:46:54.182Z,65.20
2022-10-27T10:49:25.144Z,65.23
2022-10-27T10:51:57.465Z,65.16
2022-10-27T10:54:31.701Z,65.02
2022-10-27T10:59:36.327Z,64.75
2022-10-27T11:02:18.548Z,64.65
2022-10-27T11:04:48.000Z,64.68
2022-10-27T11:07:25.032Z,64.34
2022-10-27T11:10:00.558Z,64.11
2022-10-27T11:12:36.228Z,63.92
2022-10-27T11:15:25.118Z,63.78
2022-10-27T11:17:59.412Z,63.63
2022-10-27T11:20:31.383Z,63.58
2022-10-27T11:23:03.400Z,63.92
2022-10-27T11:25:34.700Z,63.74
2022-10-27T11:28:15.742Z,63.71
2022-10-27T11:30:51.755Z,63.91
2022-10-27T11:33:30.062Z,63.77
2022-10-27T11:36:10.827Z,63.73
2022-10-27T11:38:52.321Z,63.64
2022-10-27T11:41:30.481Z,63.40
2022-10-27T11:44:09.791Z,63.43
2022-10-27T11:46:43.856Z,63.32
2022-10-27T11:49:21.150Z,62.89
2022-10-27T11:51:56.610Z,62.84
2022-10-27T11:54:26.106Z,62.93
2022-10-27T11:57:11.517Z,62.52
2022-10-27T11:59:54.685Z,62.25
2022-10-27T12:02:52.379Z,62.20
2022-10-27T12:05:26.934Z,62.16
2022-10-27T12:07:58.817Z,62.15
2022-10-27T12:10:35.827Z,62.51
2022-10-27T12:13:10.579Z,62.64
2022-10-27T12:15:47.092Z,62.62
2022-10-27T12:18:22.705Z,62.27
2022-10-27T12:20:56.192Z,61.84
2022-10-27T12:23:30.188Z,61.46
2022-10-27T12:26:07.316Z,61.17
2022-10-27T12:28:38.196Z,61.02
2022-10-27T12:31:12.938Z,61.35
2022-10-27T12:33:48.596Z,61.30
2022-10-27T12:36:26.189Z,60.82
2022-10-27T12:39:04.251Z,60.47
2022-10-27T12:41:38.314Z,60.32
2022-10-27T12:44:20.254Z,60.51
2022-10-27T12:47:04.573Z,60.85
2022-10-27T12:49:41.423Z,60.86
2022-10-27T12:52:15.819Z,60.78
2022-10-27T12:55:12.876Z,60.56
2022-10-27T12:57:53.308Z,60.53
2022-10-27T13:03:13.355Z,60.31
2022-10-27T13:06:01.401Z,60.60
2022-10-27T13:09:03.098Z,60.42
2022-10-27T13:12:08.238Z,60.27
2022-10-27T13:15:11.832Z,60.12
2022-10-27T13:17:52.159Z,60.36
2022-10-27T13:20:44.294Z,60.68
2022-10-27T13:23:21.729Z,60.62
2022-10-27T13:25:58.013Z,60.45
2022-10-27T13:28:33.537Z,60.28
2022-10-27T13:31:10.937Z,60.06
2022-10-27T13:36:30.548Z,60.25
2022-10-27T13:39:35.016Z,60.22
2022-10-27T13:42:17.270Z,60.17
2022-10-27T13:44:50.673Z,59.87
2022-10-27T13:47:23.221Z,60.06
2022-10-27T13:49:58.641Z,60.33
2022-10-27T13:52:31.063Z,60.36
2022-10-27T13:55:23.213Z,60.19
2022-10-27T13:58:23.833Z,60.43
2022-10-27T14:01:19.969Z,60.52
2022-10-27T14:04:07.131Z,60.82
2022-10-27T14:06:39.359Z,60.77
2022-10-27T14:09:29.926Z,60.58
2022-10-27T14:12:02.687Z,60.71
2022-10-27T14:14:34.585Z,60.81
2022-10-27T14:17:15.511Z,60.98
2022-10-27T14:19:49.717Z,61.04
2022-10-27T14:22:33.517Z,61.28
2022-10-27T14:25:14.516Z,61.20
2022-10-27T14:27:43.346Z,61.23
2022-10-27T14:30:18.451Z,61.28
2022-10-27T14:32:47.726Z,61.35
2022-10-27T14:35:23.544Z,61.46
2022-10-27T14:37:57.059Z,61.65
2022-10-27T14:40:36.336Z,61.77
2022-10-27T14:43:14.430Z,61.88
2022-10-27T14:45:43.937Z,61.96
2022-10-27T14:48:24.308Z,62.20
2022-10-27T14:50:54.564Z,62.26
2022-10-27T14:53:30.710Z,62.32
2022-10-27T14:56:17.143Z,62.49
2022-10-27T14:58:53.722Z,62.61
2022-10-27T15:01:35.377Z,62.68
2022-10-27T15:04:17.239Z,62.47
2022-10-27T15:06:47.683Z,62.54
2022-10-27T15:09:33.419Z,62.89
2022-10-27T15:12:06.066Z,62.86
2022-10-27T15:14:38.527Z,62.94
2022-10-27T15:17:13.415Z,62.84
2022-10-27T15:19:47.791Z,62.86
2022-10-27T15:22:19.572Z,63.06
2022-10-27T15:24:50.252Z,62.95
2022-10-27T15:27:20.316Z,63.24
2022-10-27T15:29:51.417Z,63.56
2022-10-27T15:32:28.341Z,63.84
2022-10-27T15:34:58.072Z,64.10
2022-10-27T15:37:33.310Z,64.14
2022-10-27T15:40:30.530Z,64.41
2022-10-27T15:43:01.937Z,64.49
2022-10-27T15:45:50.060Z,64.91
2022-10-27T15:48:35.254Z,65.21
2022-10-27T15:51:11.216Z,65.41
2022-10-27T15:53:47.913Z,65.87
2022-10-27T15:56:35.852Z,66.02
2022-10-27T15:59:19.837Z,66.14
2022-10-27T16:01:51.395Z,66.56
2022-10-27T16:04:31.178Z,66.58
2022-10-27T16:07:31.251Z,66.48
2022-10-27T16:10:06.020Z,66.23
2022-10-27T16:12:43.664Z,66.38
2022-10-27T16:15:22.160Z,66.34
2022-10-27T16:17:54.233Z,66.63
2022-10-27T16:20:28.219Z,66.66
2022-10-27T16:22:57.900Z,66.88
2022-10-27T16:25:37.788Z,66.84
2022-10-27T16:28:16.531Z,66.53
2022-10-27T16:30:45.787Z,66.81
2022-10-27T16:33:17.683Z,66.65
2022-10-27T16:35:47.479Z,66.69
2022-10-27T16:38:16.591Z,67.19
2022-10-27T16:40:48.184Z,67.67
2022-10-27T16:43:24.022Z,67.76
2022-10-27T16:45:53.801Z,68.21
2022-10-27T16:48:23.097Z,68.23
2022-10-27T16:50:52.419Z,68.02
2022-10-27T16:53:23.804Z,68.03
2022-10-27T16:56:00.015Z,67.99
2022-10-27T16:58:29.433Z,68.22
2022-10-27T17:01:03.158Z,68.24
2022-10-27T17:03:34.429Z,68.60
2022-10-27T17:06:04.005Z,68.43
2022-10-27T17:08:35.480Z,68.53
2022-10-27T17:11:09.688Z,68.93
2022-10-27T17:13:39.345Z,68.65
2022-10-27T17:16:13.325Z,68.70
2022-10-27T17:18:43.417Z,68.49
2022-10-27T17:21:14.562Z,68.18
2022-10-27T17:23:45.541Z,68.97
2022-10-27T17:26:15.924Z,68.79
2022-10-27T17:28:48.422Z,69.01
2022-10-27T17:31:22.701Z,69.22
2022-10-27T17:33:56.621Z,69.42
2022-10-27T17:36:27.327Z,69.58
2022-10-27T17:38:59.136Z,69.54
2022-10-27T17:41:28.826Z,69.37
2022-10-27T17:43:58.361Z,69.19
2022-10-27T17:46:27.979Z,68.85
2022-10-27T17:51:34.781Z,69.28
2022-10-27T17:54:04.628Z,69.53
2022-10-27T17:56:35.991Z,69.82
2022-10-27T17:59:07.397Z,69.70
2022-10-27T18:01:39.472Z,69.50
2022-10-27T18:04:10.832Z,69.02
2022-10-27T18:06:42.129Z,68.93
2022-10-27T18:09:13.680Z,68.74
2022-10-27T18:11:45.110Z,68.59
2022-10-27T18:14:18.219Z,68.69
2022-10-27T18:16:47.877Z,68.87
2022-10-27T18:19:17.403Z,68.84
2022-10-27T18:21:47.974Z,69.25
2022-10-27T18:24:18.206Z,69.84
2022-10-27T18:26:48.539Z,70.25
2022-10-27T18:29:22.234Z,70.66
2022-10-27T18:31:54.789Z,70.15
2022-10-27T18:34:25.442Z,69.86
2022-10-27T18:36:55.848Z,69.93
2022-10-27T18:39:25.735Z,70.06
2022-10-27T18:41:55.215Z,69.74
2022-10-27T18:44:24.845Z,69.88
2022-10-27T18:46:54.217Z,70.78
2022-10-27T18:49:43.194Z,70.79
2022-10-27T18:52:14.145Z,70.79
2022-10-27T18:54:43.991Z,70.76
2022-10-27T18:57:14.698Z,70.73
2022-10-27T18:59:45.365Z,70.98
2022-10-27T19:02:14.550Z,71.05
2022-10-27T19:04:43.813Z,71.07
2022-10-27T19:07:13.187Z,70.83
2022-10-27T19:09:42.686Z,70.91
2022-10-27T19:12:12.262Z,70.94
2022-10-27T19:14:42.139Z,71.48
2022-10-27T19:17:11.486Z,71.78
2022-10-27T19:19:41.827Z,71.70
2022-10-27T19:22:10.887Z,71.51
2022-10-27T19:24:39.738Z,71.68
2022-10-27T19:27:09.335Z,71.63
2022-10-27T19:29:38.683Z,71.16
2022-10-27T19:32:08.062Z,70.81
2022-10-27T19:34:38.269Z,70.55
2022-10-27T19:37:07.668Z,70.94
2022-10-27T19:39:37.168Z,71.40
2022-10-27T19:42:07.179Z,71.44
2022-10-27T19:44:38.012Z,71.41
2022-10-27T19:47:07.924Z,71.16
2022-10-27T19:49:37.682Z,71.06
2022-10-27T19:52:07.468Z,70.99
2022-10-27T19:54:36.974Z,70.94
2022-10-27T19:57:06.556Z,71.35
2022-10-27T19:59:37.188Z,71.41
2022-10-27T20:02:07.835Z,71.87
2022-10-27T20:04:39.963Z,71.61
2022-10-27T20:07:09.934Z,71.19
2022-10-27T20:09:39.102Z,71.18
2022-10-27T20:12:09.459Z,71.07
2022-10-27T20:14:38.753Z,70.90
2022-10-27T20:17:07.967Z,71.29
2022-10-27T20:19:38.171Z,71.74
2022-10-27T20:22:07.516Z,72.09
2022-10-27T20:24:36.786Z,72.17
2022-10-27T20:27:05.798Z,72.22
2022-10-27T20:29:35.841Z,72.16
2022-10-27T20:32:05.753Z,72.42
2022-10-27T20:34:39.506Z,72.68
2022-10-27T20:37:09.078Z,72.48
2022-10-27T20:39:37.999Z,72.04
2022-10-27T20:42:07.365Z,71.85
2022-10-27T20:44:36.101Z,71.89
2022-10-27T20:47:05.111Z,72.03
2022-10-27T20:49:33.917Z,72.42
2022-10-27T20:52:02.729Z,72.58
2022-10-27T20:54:32.031Z,72.61
2022-10-27T20:57:00.838Z,72.69
2022-10-27T20:59:29.521Z,73.40
2022-10-27T21:01:59.214Z,73.59
2022-10-27T21:04:28.169Z,73.45
2022-10-27T21:06:57.266Z,73.53
2022-10-27T21:09:26.100Z,73.48
2022-10-27T21:11:54.944Z,73.31
2022-10-27T21:14:23.774Z,73.36
2022-10-27T21:16:52.432Z,73.48
2022-10-27T21:19:21.372Z,73.29
2022-10-27T21:21:50.141Z,73.34
2022-10-27T21:24:18.958Z,73.27
2022-10-27T21:26:47.716Z,72.97
2022-10-27T21:29:16.653Z,73.21
2022-10-27T21:31:46.350Z,73.25
2022-10-27T21:34:15.626Z,72.96
2022-10-27T21:36:44.424Z,72.56
2022-10-27T21:39:14.285Z,72.52
2022-10-27T21:41:43.055Z,72.88
2022-10-27T21:44:12.146Z,73.34
2022-10-27T21:46:41.272Z,73.19
2022-10-27T21:49:12.153Z,73.26
2022-10-27T21:51:41.890Z,72.73
2022-10-27T21:54:12.749Z,72.38
2022-10-27T21:56:43.350Z,72.29
2022-10-27T21:59:13.433Z,72.21
2022-10-27T22:01:42.820Z,71.90
2022-10-27T22:04:11.820Z,72.22
2022-10-27T22:06:44.288Z,72.11
2022-10-27T22:09:15.195Z,72.14
2022-10-27T22:11:44.028Z,72.26
2022-10-27T22:14:14.087Z,72.48
2022-10-27T22:16:43.043Z,72.50
2022-10-27T22:19:12.863Z,72.55
2022-10-27T22:21:42.937Z,72.72
2022-10-27T22:24:11.939Z,72.52
2022-10-27T22:26:41.118Z,72.90
2022-10-27T22:29:10.183Z,73.23
2022-10-27T22:31:39.023Z,73.81
2022-10-27T22:34:09.862Z,73.91
2022-10-27T22:36:39.026Z,73.95
2022-10-27T22:39:09.252Z,73.97
2022-10-27T22:41:38.333Z,73.80
2022-10-27T22:44:07.522Z,73.38
2022-10-27T22:46:36.405Z,73.15
2022-10-27T22:49:05.417Z,73.37
2022-10-27T22:51:34.543Z,73.75
2022-10-27T22:54:03.426Z,73.50
2022-10-27T22:56:34.100Z,73.50
2022-10-27T22:59:07.968Z,73.41
2022-10-27T23:01:38.999Z,73.58
2022-10-27T23:04:11.445Z,73.67
2022-10-27T23:06:40.660Z,73.47
2022-10-27T23:09:14.592Z,73.77
2022-10-27T23:11:44.222Z,73.85
2022-10-27T23:14:15.172Z,74.17
2022-10-27T23:16:44.697Z,74.18
2022-10-27T23:19:14.083Z,73.75
2022-10-27T23:21:44.135Z,74.16
2022-10-27T23:24:15.023Z,74.47
2022-10-27T23:26:43.761Z,74.46
2022-10-27T23:29:14.450Z,74.91
2022-10-27T23:31:43.858Z,74.71
2022-10-27T23:34:12.836Z,75.23
2022-10-27T23:36:43.913Z,75.13
2022-10-27T23:39:13.500Z,75.18
2022-10-27T23:41:42.627Z,75.52
2022-10-27T23:44:11.639Z,75.52
2022-10-27T23:46:40.354Z,75.80
2022-10-27T23:49:09.455Z,75.39
2022-10-27T23:51:38.333Z,75.61
2022-10-27T23:54:07.483Z,75.81
2022-10-27T23:56:36.412Z,75.15
2022-10-27T23:59:05.283Z,75.17
